sensor_id;sensor_type;location;lat;lon;timestamp;P1;durP1;ratioP1;P2;durP2;ratioP2
44440;SDS011;30146;52.268;20.944;2023-11-19T00:01:54;44.50;;;24.00;;
44440;SDS011;30146;52.268;20.944;2023-11-19T00:04:26;46.40;;;23.60;;
44440;SDS011;30146;52.268;20.944;2023-11-19T00:06:58;46.10;;;22.90;;
44440;SDS011;30146;52.268;20.944;2023-11-19T00:09:32;45.40;;;23.30;;
44440;SDS011;30146;52.268;20.944;2023-11-19T00:12:06;46.10;;;24.70;;
44440;SDS011;30146;52.268;20.944;2023-11-19T00:14:37;37.60;;;22.30;;
44440;SDS011;30146;52.268;20.944;2023-11-19T00:17:09;44.30;;;21.50;;
44440;SDS011;30146;52.268;20.944;2023-11-19T00:19:40;47.00;;;24.40;;
44440;SDS011;30146;52.268;20.944;2023-11-19T00:22:11;46.50;;;24.90;;
44440;SDS011;30146;52.268;20.944;2023-11-19T00:24:42;40.00;;;23.20;;
44440;SDS011;30146;52.268;20.944;2023-11-19T00:27:13;40.40;;;22.50;;
44440;SDS011;30146;52.268;20.944;2023-11-19T00:29:45;38.50;;;22.40;;
44440;SDS011;30146;52.268;20.944;2023-11-19T00:32:17;43.70;;;23.60;;
44440;SDS011;30146;52.268;20.944;2023-11-19T00:34:48;46.30;;;22.00;;
44440;SDS011;30146;52.268;20.944;2023-11-19T00:37:19;39.70;;;22.60;;
44440;SDS011;30146;52.268;20.944;2023-11-19T00:39:50;37.90;;;21.90;;
44440;SDS011;30146;52.268;20.944;2023-11-19T00:42:21;41.90;;;22.90;;
44440;SDS011;30146;52.268;20.944;2023-11-19T00:44:53;35.80;;;21.90;;
44440;SDS011;30146;52.268;20.944;2023-11-19T00:47:24;51.80;;;28.10;;
44440;SDS011;30146;52.268;20.944;2023-11-19T00:49:55;68.10;;;31.40;;
44440;SDS011;30146;52.268;20.944;2023-11-19T00:52:26;57.40;;;28.00;;
44440;SDS011;30146;52.268;20.944;2023-11-19T00:54:58;51.80;;;25.80;;
44440;SDS011;30146;52.268;20.944;2023-11-19T00:57:30;46.50;;;25.60;;
44440;SDS011;30146;52.268;20.944;2023-11-19T01:00:01;47.30;;;23.80;;
44440;SDS011;30146;52.268;20.944;2023-11-19T01:02:37;41.90;;;24.10;;
44440;SDS011;30146;52.268;20.944;2023-11-19T01:05:09;48.10;;;25.90;;
44440;SDS011;30146;52.268;20.944;2023-11-19T01:07:42;51.00;;;27.70;;
44440;SDS011;30146;52.268;20.944;2023-11-19T01:10:13;53.50;;;26.30;;
44440;SDS011;30146;52.268;20.944;2023-11-19T01:12:44;44.50;;;25.30;;
44440;SDS011;30146;52.268;20.944;2023-11-19T01:15:15;41.50;;;24.30;;
44440;SDS011;30146;52.268;20.944;2023-11-19T01:17:48;49.20;;;26.20;;
44440;SDS011;30146;52.268;20.944;2023-11-19T01:20:21;50.80;;;25.30;;
44440;SDS011;30146;52.268;20.944;2023-11-19T01:22:52;49.20;;;26.30;;
44440;SDS011;30146;52.268;20.944;2023-11-19T01:25:24;55.30;;;27.50;;
44440;SDS011;30146;52.268;20.944;2023-11-19T01:31:03;47.30;;;25.40;;
44440;SDS011;30146;52.268;20.944;2023-11-19T01:33:38;48.00;;;26.80;;
44440;SDS011;30146;52.268;20.944;2023-11-19T01:36:12;49.40;;;25.90;;
44440;SDS011;30146;52.268;20.944;2023-11-19T01:38:43;51.30;;;24.80;;
44440;SDS011;30146;52.268;20.944;2023-11-19T01:41:14;52.30;;;27.10;;
44440;SDS011;30146;52.268;20.944;2023-11-19T01:43:44;54.70;;;28.70;;
44440;SDS011;30146;52.268;20.944;2023-11-19T01:46:16;47.70;;;26.50;;
44440;SDS011;30146;52.268;20.944;2023-11-19T01:48:47;51.70;;;28.00;;
44440;SDS011;30146;52.268;20.944;2023-11-19T01:51:18;58.80;;;28.30;;
44440;SDS011;30146;52.268;20.944;2023-11-19T01:53:50;50.70;;;27.80;;
44440;SDS011;30146;52.268;20.944;2023-11-19T01:56:22;51.50;;;26.70;;
44440;SDS011;30146;52.268;20.944;2023-11-19T01:58:54;48.00;;;26.30;;
44440;SDS011;30146;52.268;20.944;2023-11-19T02:01:26;56.50;;;28.80;;
44440;SDS011;30146;52.268;20.944;2023-11-19T02:03:58;52.50;;;27.20;;
44440;SDS011;30146;52.268;20.944;2023-11-19T02:06:30;53.30;;;27.60;;
44440;SDS011;30146;52.268;20.944;2023-11-19T02:09:04;48.90;;;27.80;;
44440;SDS011;30146;52.268;20.944;2023-11-19T02:11:36;59.30;;;29.30;;
44440;SDS011;30146;52.268;20.944;2023-11-19T02:14:08;60.90;;;28.10;;
44440;SDS011;30146;52.268;20.944;2023-11-19T02:16:39;57.20;;;28.60;;
44440;SDS011;30146;52.268;20.944;2023-11-19T02:19:10;69.20;;;30.40;;
44440;SDS011;30146;52.268;20.944;2023-11-19T02:21:41;54.70;;;27.80;;
44440;SDS011;30146;52.268;20.944;2023-11-19T02:24:12;59.90;;;30.60;;
44440;SDS011;30146;52.268;20.944;2023-11-19T02:26:51;64.40;;;30.00;;
44440;SDS011;30146;52.268;20.944;2023-11-19T02:29:28;56.50;;;28.60;;
44440;SDS011;30146;52.268;20.944;2023-11-19T02:31:59;62.00;;;29.60;;
44440;SDS011;30146;52.268;20.944;2023-11-19T02:34:31;61.00;;;29.00;;
44440;SDS011;30146;52.268;20.944;2023-11-19T02:37:02;65.40;;;32.10;;
44440;SDS011;30146;52.268;20.944;2023-11-19T02:39:34;53.50;;;28.60;;
44440;SDS011;30146;52.268;20.944;2023-11-19T02:42:05;55.90;;;29.60;;
44440;SDS011;30146;52.268;20.944;2023-11-19T02:44:37;59.60;;;29.70;;
44440;SDS011;30146;52.268;20.944;2023-11-19T02:47:07;61.60;;;30.70;;
44440;SDS011;30146;52.268;20.944;2023-11-19T02:49:38;52.50;;;27.00;;
44440;SDS011;30146;52.268;20.944;2023-11-19T02:52:11;57.50;;;28.60;;
44440;SDS011;30146;52.268;20.944;2023-11-19T02:54:43;54.00;;;28.30;;
44440;SDS011;30146;52.268;20.944;2023-11-19T02:57:14;56.00;;;28.90;;
44440;SDS011;30146;52.268;20.944;2023-11-19T02:59:50;57.40;;;27.40;;
44440;SDS011;30146;52.268;20.944;2023-11-19T03:02:22;58.30;;;28.70;;
44440;SDS011;30146;52.268;20.944;2023-11-19T03:05:02;57.10;;;27.30;;
44440;SDS011;30146;52.268;20.944;2023-11-19T03:07:33;55.30;;;27.70;;
44440;SDS011;30146;52.268;20.944;2023-11-19T03:10:04;52.00;;;27.30;;
44440;SDS011;30146;52.268;20.944;2023-11-19T03:12:37;57.50;;;29.10;;
44440;SDS011;30146;52.268;20.944;2023-11-19T03:15:08;57.60;;;28.30;;
44440;SDS011;30146;52.268;20.944;2023-11-19T03:17:40;60.60;;;29.80;;
44440;SDS011;30146;52.268;20.944;2023-11-19T03:20:12;49.30;;;25.30;;
44440;SDS011;30146;52.268;20.944;2023-11-19T03:22:45;51.20;;;26.30;;
44440;SDS011;30146;52.268;20.944;2023-11-19T03:25:15;55.60;;;27.70;;
44440;SDS011;30146;52.268;20.944;2023-11-19T03:27:48;53.80;;;28.30;;
44440;SDS011;30146;52.268;20.944;2023-11-19T03:30:19;50.50;;;25.80;;
44440;SDS011;30146;52.268;20.944;2023-11-19T03:33:01;53.70;;;26.20;;
44440;SDS011;30146;52.268;20.944;2023-11-19T03:35:32;49.30;;;24.00;;
44440;SDS011;30146;52.268;20.944;2023-11-19T03:38:03;51.00;;;25.40;;
44440;SDS011;30146;52.268;20.944;2023-11-19T03:40:34;48.90;;;24.70;;
44440;SDS011;30146;52.268;20.944;2023-11-19T03:43:06;52.00;;;24.70;;
44440;SDS011;30146;52.268;20.944;2023-11-19T03:45:37;49.00;;;24.30;;
44440;SDS011;30146;52.268;20.944;2023-11-19T03:48:08;48.10;;;24.00;;
44440;SDS011;30146;52.268;20.944;2023-11-19T03:50:39;45.40;;;20.80;;
44440;SDS011;30146;52.268;20.944;2023-11-19T03:53:10;41.40;;;22.00;;
44440;SDS011;30146;52.268;20.944;2023-11-19T03:55:41;38.90;;;21.20;;
44440;SDS011;30146;52.268;20.944;2023-11-19T03:58:12;41.70;;;22.10;;
44440;SDS011;30146;52.268;20.944;2023-11-19T04:00:43;41.70;;;21.10;;
44440;SDS011;30146;52.268;20.944;2023-11-19T04:03:13;41.10;;;20.80;;
44440;SDS011;30146;52.268;20.944;2023-11-19T04:05:45;39.20;;;21.10;;
44440;SDS011;30146;52.268;20.944;2023-11-19T04:08:16;41.30;;;21.30;;
44440;SDS011;30146;52.268;20.944;2023-11-19T04:10:47;46.70;;;22.10;;
44440;SDS011;30146;52.268;20.944;2023-11-19T04:13:18;43.40;;;21.90;;
44440;SDS011;30146;52.268;20.944;2023-11-19T04:15:50;43.70;;;20.30;;
44440;SDS011;30146;52.268;20.944;2023-11-19T04:18:21;43.70;;;21.80;;
44440;SDS011;30146;52.268;20.944;2023-11-19T04:20:52;37.60;;;20.00;;
44440;SDS011;30146;52.268;20.944;2023-11-19T04:23:25;39.90;;;20.30;;
44440;SDS011;30146;52.268;20.944;2023-11-19T04:25:56;46.90;;;23.10;;
44440;SDS011;30146;52.268;20.944;2023-11-19T04:28:38;41.00;;;22.10;;
44440;SDS011;30146;52.268;20.944;2023-11-19T04:31:09;46.40;;;23.40;;
44440;SDS011;30146;52.268;20.944;2023-11-19T04:33:40;46.90;;;21.60;;
44440;SDS011;30146;52.268;20.944;2023-11-19T04:36:11;41.00;;;21.30;;
44440;SDS011;30146;52.268;20.944;2023-11-19T04:38:42;37.60;;;21.90;;
44440;SDS011;30146;52.268;20.944;2023-11-19T04:41:14;39.80;;;21.40;;
44440;SDS011;30146;52.268;20.944;2023-11-19T04:43:44;37.30;;;20.00;;
44440;SDS011;30146;52.268;20.944;2023-11-19T04:46:15;45.50;;;21.70;;
44440;SDS011;30146;52.268;20.944;2023-11-19T04:48:47;38.10;;;19.70;;
44440;SDS011;30146;52.268;20.944;2023-11-19T04:51:18;39.80;;;21.20;;
44440;SDS011;30146;52.268;20.944;2023-11-19T04:53:49;39.40;;;21.50;;
44440;SDS011;30146;52.268;20.944;2023-11-19T04:56:19;41.10;;;20.70;;
44440;SDS011;30146;52.268;20.944;2023-11-19T04:58:51;42.10;;;22.30;;
44440;SDS011;30146;52.268;20.944;2023-11-19T05:01:21;35.80;;;19.60;;
44440;SDS011;30146;52.268;20.944;2023-11-19T05:03:52;39.30;;;19.70;;
44440;SDS011;30146;52.268;20.944;2023-11-19T05:06:24;45.30;;;22.70;;
44440;SDS011;30146;52.268;20.944;2023-11-19T05:08:58;43.80;;;23.10;;
44440;SDS011;30146;52.268;20.944;2023-11-19T05:11:34;41.80;;;21.40;;
44440;SDS011;30146;52.268;20.944;2023-11-19T05:14:18;40.90;;;19.80;;
44440;SDS011;30146;52.268;20.944;2023-11-19T05:16:50;39.40;;;20.20;;
44440;SDS011;30146;52.268;20.944;2023-11-19T05:19:21;35.60;;;19.70;;
44440;SDS011;30146;52.268;20.944;2023-11-19T05:21:52;33.60;;;18.50;;
44440;SDS011;30146;52.268;20.944;2023-11-19T05:24:22;33.20;;;19.60;;
44440;SDS011;30146;52.268;20.944;2023-11-19T05:26:53;38.20;;;19.80;;
44440;SDS011;30146;52.268;20.944;2023-11-19T05:29:24;36.90;;;20.40;;
44440;SDS011;30146;52.268;20.944;2023-11-19T05:31:55;33.60;;;20.10;;
44440;SDS011;30146;52.268;20.944;2023-11-19T05:34:27;37.10;;;20.10;;
44440;SDS011;30146;52.268;20.944;2023-11-19T05:36:57;41.30;;;19.20;;
44440;SDS011;30146;52.268;20.944;2023-11-19T05:39:28;42.20;;;22.10;;
44440;SDS011;30146;52.268;20.944;2023-11-19T05:41:59;35.80;;;19.30;;
44440;SDS011;30146;52.268;20.944;2023-11-19T05:44:30;38.00;;;19.00;;
44440;SDS011;30146;52.268;20.944;2023-11-19T05:47:01;35.50;;;18.70;;
44440;SDS011;30146;52.268;20.944;2023-11-19T05:49:32;37.60;;;18.30;;
44440;SDS011;30146;52.268;20.944;2023-11-19T05:52:03;42.10;;;19.90;;
44440;SDS011;30146;52.268;20.944;2023-11-19T05:54:37;37.10;;;18.80;;
44440;SDS011;30146;52.268;20.944;2023-11-19T05:57:08;38.90;;;18.90;;
44440;SDS011;30146;52.268;20.944;2023-11-19T05:59:38;40.40;;;20.60;;
44440;SDS011;30146;52.268;20.944;2023-11-19T06:02:09;38.10;;;16.80;;
44440;SDS011;30146;52.268;20.944;2023-11-19T06:04:40;32.80;;;17.50;;
44440;SDS011;30146;52.268;20.944;2023-11-19T06:07:12;36.90;;;18.20;;
44440;SDS011;30146;52.268;20.944;2023-11-19T06:09:43;39.40;;;19.20;;
44440;SDS011;30146;52.268;20.944;2023-11-19T06:12:14;45.80;;;24.20;;
44440;SDS011;30146;52.268;20.944;2023-11-19T06:14:45;32.10;;;19.00;;
44440;SDS011;30146;52.268;20.944;2023-11-19T06:17:16;34.10;;;17.00;;
44440;SDS011;30146;52.268;20.944;2023-11-19T06:19:46;30.20;;;16.00;;
44440;SDS011;30146;52.268;20.944;2023-11-19T06:22:17;30.80;;;15.70;;
44440;SDS011;30146;52.268;20.944;2023-11-19T06:24:49;33.10;;;18.40;;
44440;SDS011;30146;52.268;20.944;2023-11-19T06:27:20;30.80;;;16.40;;
44440;SDS011;30146;52.268;20.944;2023-11-19T06:29:51;29.10;;;16.50;;
44440;SDS011;30146;52.268;20.944;2023-11-19T06:32:22;31.70;;;16.00;;
44440;SDS011;30146;52.268;20.944;2023-11-19T06:34:53;30.30;;;15.40;;
44440;SDS011;30146;52.268;20.944;2023-11-19T06:37:24;26.90;;;15.20;;
44440;SDS011;30146;52.268;20.944;2023-11-19T06:39:55;27.30;;;15.00;;
44440;SDS011;30146;52.268;20.944;2023-11-19T06:42:27;25.30;;;14.10;;
44440;SDS011;30146;52.268;20.944;2023-11-19T06:44:57;31.90;;;15.70;;
44440;SDS011;30146;52.268;20.944;2023-11-19T06:47:28;25.70;;;14.60;;
44440;SDS011;30146;52.268;20.944;2023-11-19T06:49:59;20.50;;;11.70;;
44440;SDS011;30146;52.268;20.944;2023-11-19T06:52:33;21.00;;;12.90;;
44440;SDS011;30146;52.268;20.944;2023-11-19T06:55:06;18.40;;;11.30;;
44440;SDS011;30146;52.268;20.944;2023-11-19T06:57:37;16.20;;;10.40;;
44440;SDS011;30146;52.268;20.944;2023-11-19T07:00:09;21.50;;;11.90;;
44440;SDS011;30146;52.268;20.944;2023-11-19T07:02:41;24.30;;;12.30;;
44440;SDS011;30146;52.268;20.944;2023-11-19T07:05:12;18.50;;;10.90;;
44440;SDS011;30146;52.268;20.944;2023-11-19T07:07:43;34.80;;;17.80;;
44440;SDS011;30146;52.268;20.944;2023-11-19T07:10:14;15.40;;;9.50;;
44440;SDS011;30146;52.268;20.944;2023-11-19T07:12:45;19.80;;;10.80;;
44440;SDS011;30146;52.268;20.944;2023-11-19T07:15:18;21.80;;;11.60;;
44440;SDS011;30146;52.268;20.944;2023-11-19T07:17:49;17.10;;;10.40;;
44440;SDS011;30146;52.268;20.944;2023-11-19T07:20:25;18.10;;;11.40;;
44440;SDS011;30146;52.268;20.944;2023-11-19T07:22:56;18.10;;;9.70;;
44440;SDS011;30146;52.268;20.944;2023-11-19T07:25:26;20.30;;;11.50;;
44440;SDS011;30146;52.268;20.944;2023-11-19T07:27:57;17.80;;;9.60;;
44440;SDS011;30146;52.268;20.944;2023-11-19T07:30:28;13.40;;;9.50;;
44440;SDS011;30146;52.268;20.944;2023-11-19T07:32:59;14.30;;;9.00;;
44440;SDS011;30146;52.268;20.944;2023-11-19T07:35:32;11.70;;;9.70;;
44440;SDS011;30146;52.268;20.944;2023-11-19T07:38:03;13.90;;;9.10;;
44440;SDS011;30146;52.268;20.944;2023-11-19T07:40:34;10.70;;;7.50;;
44440;SDS011;30146;52.268;20.944;2023-11-19T07:43:05;13.30;;;8.40;;
44440;SDS011;30146;52.268;20.944;2023-11-19T07:45:36;10.50;;;8.10;;
44440;SDS011;30146;52.268;20.944;2023-11-19T07:48:07;14.80;;;7.80;;
44440;SDS011;30146;52.268;20.944;2023-11-19T07:50:38;14.10;;;8.80;;
44440;SDS011;30146;52.268;20.944;2023-11-19T07:53:09;11.70;;;8.80;;
44440;SDS011;30146;52.268;20.944;2023-11-19T07:55:41;17.10;;;9.60;;
44440;SDS011;30146;52.268;20.944;2023-11-19T07:58:12;14.10;;;9.70;;
44440;SDS011;30146;52.268;20.944;2023-11-19T08:00:43;14.00;;;9.70;;
44440;SDS011;30146;52.268;20.944;2023-11-19T08:03:13;15.40;;;9.10;;
44440;SDS011;30146;52.268;20.944;2023-11-19T08:05:45;13.90;;;9.60;;
44440;SDS011;30146;52.268;20.944;2023-11-19T08:08:15;16.40;;;10.20;;
44440;SDS011;30146;52.268;20.944;2023-11-19T08:10:46;15.60;;;9.10;;
44440;SDS011;30146;52.268;20.944;2023-11-19T08:13:19;18.10;;;11.20;;
44440;SDS011;30146;52.268;20.944;2023-11-19T08:15:50;18.50;;;11.50;;
44440;SDS011;30146;52.268;20.944;2023-11-19T08:18:21;16.60;;;10.70;;
44440;SDS011;30146;52.268;20.944;2023-11-19T08:20:52;16.80;;;10.80;;
44440;SDS011;30146;52.268;20.944;2023-11-19T08:23:24;19.00;;;11.80;;
44440;SDS011;30146;52.268;20.944;2023-11-19T08:25:56;16.80;;;10.40;;
44440;SDS011;30146;52.268;20.944;2023-11-19T08:28:27;17.30;;;11.10;;
44440;SDS011;30146;52.268;20.944;2023-11-19T08:30:59;15.70;;;9.30;;
44440;SDS011;30146;52.268;20.944;2023-11-19T08:33:30;20.10;;;11.00;;
44440;SDS011;30146;52.268;20.944;2023-11-19T08:36:01;20.90;;;12.10;;
44440;SDS011;30146;52.268;20.944;2023-11-19T08:38:32;16.70;;;10.90;;
44440;SDS011;30146;52.268;20.944;2023-11-19T08:41:03;17.30;;;11.10;;
44440;SDS011;30146;52.268;20.944;2023-11-19T08:43:34;17.30;;;11.20;;
44440;SDS011;30146;52.268;20.944;2023-11-19T08:46:10;15.70;;;10.00;;
44440;SDS011;30146;52.268;20.944;2023-11-19T08:48:41;15.20;;;9.70;;
44440;SDS011;30146;52.268;20.944;2023-11-19T08:51:12;17.80;;;9.50;;
44440;SDS011;30146;52.268;20.944;2023-11-19T08:53:43;17.40;;;10.90;;
44440;SDS011;30146;52.268;20.944;2023-11-19T08:56:14;18.10;;;11.30;;
44440;SDS011;30146;52.268;20.944;2023-11-19T08:58:45;16.30;;;9.80;;
44440;SDS011;30146;52.268;20.944;2023-11-19T09:01:16;15.90;;;10.20;;
44440;SDS011;30146;52.268;20.944;2023-11-19T09:03:46;17.30;;;11.80;;
44440;SDS011;30146;52.268;20.944;2023-11-19T09:06:18;20.50;;;12.40;;
44440;SDS011;30146;52.268;20.944;2023-11-19T09:08:48;17.20;;;10.40;;
44440;SDS011;30146;52.268;20.944;2023-11-19T09:11:20;18.20;;;11.30;;
44440;SDS011;30146;52.268;20.944;2023-11-19T09:13:51;15.70;;;9.90;;
44440;SDS011;30146;52.268;20.944;2023-11-19T09:16:22;17.60;;;12.20;;
44440;SDS011;30146;52.268;20.944;2023-11-19T09:18:54;18.40;;;9.70;;
44440;SDS011;30146;52.268;20.944;2023-11-19T09:21:26;21.40;;;11.20;;
44440;SDS011;30146;52.268;20.944;2023-11-19T09:23:57;15.30;;;9.70;;
44440;SDS011;30146;52.268;20.944;2023-11-19T09:26:33;19.60;;;11.10;;
44440;SDS011;30146;52.268;20.944;2023-11-19T09:29:07;16.30;;;10.10;;
44440;SDS011;30146;52.268;20.944;2023-11-19T09:31:38;19.00;;;11.90;;
44440;SDS011;30146;52.268;20.944;2023-11-19T09:34:09;16.20;;;10.40;;
44440;SDS011;30146;52.268;20.944;2023-11-19T09:36:43;15.50;;;9.70;;
44440;SDS011;30146;52.268;20.944;2023-11-19T09:39:14;20.20;;;11.80;;
44440;SDS011;30146;52.268;20.944;2023-11-19T09:41:46;16.80;;;11.10;;
44440;SDS011;30146;52.268;20.944;2023-11-19T09:44:17;25.00;;;14.80;;
44440;SDS011;30146;52.268;20.944;2023-11-19T09:46:49;32.90;;;16.60;;
44440;SDS011;30146;52.268;20.944;2023-11-19T09:49:21;18.30;;;12.10;;
44440;SDS011;30146;52.268;20.944;2023-11-19T09:51:58;17.50;;;10.60;;
44440;SDS011;30146;52.268;20.944;2023-11-19T09:54:33;21.60;;;13.30;;
44440;SDS011;30146;52.268;20.944;2023-11-19T09:57:04;19.10;;;12.60;;
44440;SDS011;30146;52.268;20.944;2023-11-19T09:59:39;22.00;;;12.90;;
44440;SDS011;30146;52.268;20.944;2023-11-19T10:02:11;23.70;;;13.90;;
44440;SDS011;30146;52.268;20.944;2023-11-19T10:04:43;18.20;;;11.90;;
44440;SDS011;30146;52.268;20.944;2023-11-19T10:07:16;19.00;;;11.30;;
44440;SDS011;30146;52.268;20.944;2023-11-19T10:09:47;20.40;;;12.80;;
44440;SDS011;30146;52.268;20.944;2023-11-19T10:12:18;20.10;;;13.00;;
44440;SDS011;30146;52.268;20.944;2023-11-19T10:14:53;22.50;;;13.40;;
44440;SDS011;30146;52.268;20.944;2023-11-19T10:17:28;19.60;;;11.40;;
44440;SDS011;30146;52.268;20.944;2023-11-19T10:20:02;18.50;;;10.30;;
44440;SDS011;30146;52.268;20.944;2023-11-19T10:22:37;20.40;;;12.50;;
44440;SDS011;30146;52.268;20.944;2023-11-19T10:25:10;24.30;;;13.20;;
44440;SDS011;30146;52.268;20.944;2023-11-19T10:27:53;21.70;;;13.20;;
44440;SDS011;30146;52.268;20.944;2023-11-19T10:30:24;23.60;;;14.80;;
44440;SDS011;30146;52.268;20.944;2023-11-19T10:33:06;25.20;;;14.70;;
44440;SDS011;30146;52.268;20.944;2023-11-19T10:35:52;19.10;;;11.70;;
44440;SDS011;30146;52.268;20.944;2023-11-19T10:38:27;20.10;;;12.40;;
44440;SDS011;30146;52.268;20.944;2023-11-19T10:40:59;22.50;;;13.20;;
44440;SDS011;30146;52.268;20.944;2023-11-19T10:43:30;20.90;;;12.60;;
44440;SDS011;30146;52.268;20.944;2023-11-19T10:46:14;22.10;;;14.10;;
44440;SDS011;30146;52.268;20.944;2023-11-19T10:48:49;15.50;;;11.40;;
44440;SDS011;30146;52.268;20.944;2023-11-19T10:51:20;23.30;;;12.30;;
44440;SDS011;30146;52.268;20.944;2023-11-19T10:53:52;22.40;;;13.30;;
44440;SDS011;30146;52.268;20.944;2023-11-19T10:56:30;21.80;;;11.80;;
44440;SDS011;30146;52.268;20.944;2023-11-19T10:59:02;26.50;;;14.00;;
44440;SDS011;30146;52.268;20.944;2023-11-19T11:01:50;22.50;;;12.70;;
44440;SDS011;30146;52.268;20.944;2023-11-19T11:04:25;18.50;;;13.60;;
44440;SDS011;30146;52.268;20.944;2023-11-19T11:09:30;20.00;;;11.90;;
44440;SDS011;30146;52.268;20.944;2023-11-19T11:12:01;23.80;;;14.30;;
44440;SDS011;30146;52.268;20.944;2023-11-19T11:14:32;20.30;;;12.50;;
44440;SDS011;30146;52.268;20.944;2023-11-19T11:17:08;21.20;;;14.20;;
44440;SDS011;30146;52.268;20.944;2023-11-19T11:19:43;18.20;;;12.70;;
44440;SDS011;30146;52.268;20.944;2023-11-19T11:22:14;22.90;;;14.70;;
44440;SDS011;30146;52.268;20.944;2023-11-19T11:28:00;21.20;;;11.60;;
44440;SDS011;30146;52.268;20.944;2023-11-19T11:30:46;20.20;;;13.10;;
44440;SDS011;30146;52.268;20.944;2023-11-19T11:33:32;22.90;;;12.50;;
44440;SDS011;30146;52.268;20.944;2023-11-19T11:36:13;21.70;;;12.80;;
44440;SDS011;30146;52.268;20.944;2023-11-19T11:38:49;24.70;;;12.80;;
44440;SDS011;30146;52.268;20.944;2023-11-19T11:41:21;19.80;;;10.20;;
44440;SDS011;30146;52.268;20.944;2023-11-19T11:43:57;22.10;;;12.90;;
44440;SDS011;30146;52.268;20.944;2023-11-19T11:49:27;24.80;;;14.80;;
44440;SDS011;30146;52.268;20.944;2023-11-19T11:51:59;24.40;;;13.10;;
44440;SDS011;30146;52.268;20.944;2023-11-19T11:54:32;22.60;;;13.80;;
44440;SDS011;30146;52.268;20.944;2023-11-19T11:57:10;22.80;;;12.50;;
44440;SDS011;30146;52.268;20.944;2023-11-19T11:59:46;20.80;;;13.00;;
44440;SDS011;30146;52.268;20.944;2023-11-19T12:02:18;21.00;;;12.60;;
44440;SDS011;30146;52.268;20.944;2023-11-19T12:04:52;24.90;;;15.40;;
44440;SDS011;30146;52.268;20.944;2023-11-19T12:07:23;24.60;;;14.50;;
44440;SDS011;30146;52.268;20.944;2023-11-19T12:10:06;24.10;;;13.30;;
44440;SDS011;30146;52.268;20.944;2023-11-19T12:12:40;23.10;;;14.50;;
44440;SDS011;30146;52.268;20.944;2023-11-19T12:15:11;23.50;;;13.90;;
44440;SDS011;30146;52.268;20.944;2023-11-19T12:17:43;25.00;;;14.50;;
44440;SDS011;30146;52.268;20.944;2023-11-19T12:20:20;25.90;;;15.00;;
44440;SDS011;30146;52.268;20.944;2023-11-19T12:22:54;22.70;;;13.00;;
44440;SDS011;30146;52.268;20.944;2023-11-19T12:25:26;21.90;;;13.10;;
44440;SDS011;30146;52.268;20.944;2023-11-19T12:28:03;24.40;;;14.00;;
44440;SDS011;30146;52.268;20.944;2023-11-19T12:30:34;25.50;;;15.70;;
44440;SDS011;30146;52.268;20.944;2023-11-19T12:33:08;25.90;;;14.70;;
44440;SDS011;30146;52.268;20.944;2023-11-19T12:35:40;26.10;;;15.10;;
44440;SDS011;30146;52.268;20.944;2023-11-19T12:38:19;28.20;;;15.50;;
44440;SDS011;30146;52.268;20.944;2023-11-19T12:41:03;22.50;;;13.50;;
44440;SDS011;30146;52.268;20.944;2023-11-19T12:43:35;25.90;;;16.00;;
44440;SDS011;30146;52.268;20.944;2023-11-19T12:46:17;24.30;;;14.60;;
44440;SDS011;30146;52.268;20.944;2023-11-19T12:48:49;24.80;;;14.00;;
44440;SDS011;30146;52.268;20.944;2023-11-19T12:51:27;30.70;;;15.20;;
44440;SDS011;30146;52.268;20.944;2023-11-19T12:54:01;22.90;;;13.80;;
44440;SDS011;30146;52.268;20.944;2023-11-19T12:56:33;23.60;;;12.50;;
44440;SDS011;30146;52.268;20.944;2023-11-19T12:59:13;25.30;;;14.20;;
44440;SDS011;30146;52.268;20.944;2023-11-19T13:01:54;19.30;;;12.00;;
44440;SDS011;30146;52.268;20.944;2023-11-19T13:04:28;27.60;;;12.80;;
44440;SDS011;30146;52.268;20.944;2023-11-19T13:06:59;23.30;;;12.60;;
44440;SDS011;30146;52.268;20.944;2023-11-19T13:09:33;20.10;;;12.60;;
44440;SDS011;30146;52.268;20.944;2023-11-19T13:12:13;25.60;;;14.90;;
44440;SDS011;30146;52.268;20.944;2023-11-19T13:14:44;20.70;;;13.40;;
44440;SDS011;30146;52.268;20.944;2023-11-19T13:17:17;25.40;;;13.90;;
44440;SDS011;30146;52.268;20.944;2023-11-19T13:19:49;22.60;;;13.50;;
44440;SDS011;30146;52.268;20.944;2023-11-19T13:22:20;24.10;;;14.90;;
44440;SDS011;30146;52.268;20.944;2023-11-19T13:24:51;23.90;;;14.40;;
44440;SDS011;30146;52.268;20.944;2023-11-19T13:27:22;22.40;;;13.40;;
44440;SDS011;30146;52.268;20.944;2023-11-19T13:29:53;25.50;;;14.90;;
44440;SDS011;30146;52.268;20.944;2023-11-19T13:32:24;21.60;;;11.80;;
44440;SDS011;30146;52.268;20.944;2023-11-19T13:34:54;18.50;;;10.60;;
44440;SDS011;30146;52.268;20.944;2023-11-19T13:37:25;27.00;;;15.00;;
44440;SDS011;30146;52.268;20.944;2023-11-19T13:39:56;22.70;;;14.10;;
44440;SDS011;30146;52.268;20.944;2023-11-19T13:42:27;26.30;;;15.30;;
44440;SDS011;30146;52.268;20.944;2023-11-19T13:44:58;23.70;;;13.00;;
44440;SDS011;30146;52.268;20.944;2023-11-19T13:47:29;23.30;;;13.90;;
44440;SDS011;30146;52.268;20.944;2023-11-19T13:50:03;24.40;;;14.00;;
44440;SDS011;30146;52.268;20.944;2023-11-19T13:52:35;25.00;;;15.20;;
44440;SDS011;30146;52.268;20.944;2023-11-19T13:55:08;30.70;;;17.60;;
44440;SDS011;30146;52.268;20.944;2023-11-19T13:57:39;25.50;;;15.00;;
44440;SDS011;30146;52.268;20.944;2023-11-19T14:00:12;22.10;;;13.50;;
44440;SDS011;30146;52.268;20.944;2023-11-19T14:02:45;20.40;;;13.40;;
44440;SDS011;30146;52.268;20.944;2023-11-19T14:05:16;25.90;;;14.30;;
44440;SDS011;30146;52.268;20.944;2023-11-19T14:07:51;21.60;;;13.20;;
44440;SDS011;30146;52.268;20.944;2023-11-19T14:10:24;21.90;;;13.70;;
44440;SDS011;30146;52.268;20.944;2023-11-19T14:12:56;24.60;;;14.90;;
44440;SDS011;30146;52.268;20.944;2023-11-19T14:15:27;25.90;;;14.70;;
44440;SDS011;30146;52.268;20.944;2023-11-19T14:17:58;32.60;;;16.70;;
44440;SDS011;30146;52.268;20.944;2023-11-19T14:20:30;23.60;;;12.80;;
44440;SDS011;30146;52.268;20.944;2023-11-19T14:23:01;26.30;;;14.70;;
44440;SDS011;30146;52.268;20.944;2023-11-19T14:25:31;21.20;;;12.20;;
44440;SDS011;30146;52.268;20.944;2023-11-19T14:28:03;34.40;;;19.40;;
44440;SDS011;30146;52.268;20.944;2023-11-19T14:30:34;28.40;;;15.90;;
44440;SDS011;30146;52.268;20.944;2023-11-19T14:33:06;30.00;;;15.90;;
44440;SDS011;30146;52.268;20.944;2023-11-19T14:35:37;31.50;;;17.80;;
44440;SDS011;30146;52.268;20.944;2023-11-19T14:38:08;31.00;;;18.70;;
44440;SDS011;30146;52.268;20.944;2023-11-19T14:40:38;24.10;;;13.90;;
44440;SDS011;30146;52.268;20.944;2023-11-19T14:43:10;29.90;;;17.60;;
44440;SDS011;30146;52.268;20.944;2023-11-19T14:45:43;29.90;;;15.20;;
44440;SDS011;30146;52.268;20.944;2023-11-19T14:48:17;29.90;;;18.20;;
44440;SDS011;30146;52.268;20.944;2023-11-19T14:50:49;32.70;;;15.40;;
44440;SDS011;30146;52.268;20.944;2023-11-19T14:53:20;33.30;;;17.00;;